Donnybrook, ND

4:04 PM CDT on March 29, 2017 (GMT -0500)
3rd Ave | | Change Station
Active Advisory: Flood Warning Active Notice: Public Information Statement

Elev 1614 ft 48.63 °N, 101.38 °W | Updated 4 minutes ago

Rain
Rain
55.0 °F
Feels Like 55.0 °F
N
4.0
Wind Variable Wind from SSW
Gusts 7.0 mph

Today
High -- | Low -- °F
--% Chance of Precip.
Yesterday
High -- | Low -- °F
Precip. -- in
Pressure 29.95 in
Visibility 10.0 miles
Clouds Scattered Clouds 10000 ft
Dew Point 43 °F
Humidity 64%
Rainfall 0.03 in
Snow Depth Not available.
7:30 AM 8:14 PM
Waxing Crescent, 4% visible
METAR KMIB 292058Z AUTO 21010KT 10SM SCT100 14/06 A2991 RMK AO2 SLP141 T01400055 57021 $
Pressure 29.95 in
Visibility 10.0 miles
Clouds Scattered Clouds 10000 ft
Dew Point 43 °F
Humidity 64%
Rainfall 0.03 in
Snow Depth Not available.
7:30 AM 8:14 PM
Waxing Crescent, 4% visible
METAR KMIB 292058Z AUTO 21010KT 10SM SCT100 14/06 A2991 RMK AO2 SLP141 T01400055 57021 $

Get Your Daily Forecast Email!

Thanks for signing up!

Be on the lookout for a verification email in your inbox.

You'll start receiving severe weather alerts in your inbox..

×

10-Day Weather Forecast

Almanac

Astronomy

Mar. 29, 2017 Rise Set
Actual Time
Civil Twilight
Nautical Twilight
Astronomical Twilight
Moon
Length of Visible Light
Length of Day
Tomorrow will be .
, % of the Moon is Illuminated

Today's Extremes

State Highs State Lows

Community

WunderPhotos

Upload Photos

1,962,540 photos uploaded!

WunderBlog® & News

Nearby

Air Quality

  Air Quality AQ Index Pollutant
Not available.

Snow Depth

Station Depth Elevation

Earthquake Activity

City Distance Mag. Time & Date
Minimum magnitude displayed is 2.5.

Earthquake Activity

City Distance Mag. Time & Date
Minimum magnitude displayed is 2.5.

Coastal Water Temperatures

Place Temperature

Stations

Nearby Weather Stations

Station Location Temp. Windchill Dew Point Humidity Wind Precip. Elev Updated Type
                   

Watches & Warnings

Flood Warning
Issued: 12:48 PM CDT Mar. 29, 2017 – National Weather Service

The Flood Warning continues for
the Souris river near Foxholm.
* Until further notice.
* At 12:15 PM Wednesday the stage was 1573 feet.
* Flood stage is 1573 feet.
* Minor flooding is occurring and minor flooding is forecast.
* Forecast... the river will remain near 1573 feet.
* Impact... at 1575 feet... rural flooding begins.



             Fld observed forecasts (7am)
location stg stg day/time Thu Fri Sat sun Mon

Souris river basin
Foxholm 1573 1573.3 Wed 12 PM 1573.3 1573.3 1573.3 1573.3
1573.3


Lat... Lon 4845 10159 4845 10155 4843 10151 4828 10140
      4827 10142 4837 10152